Aérodrome :
LOGIN :

S'inscrire | Disclaimer

   EN    FR    IT 

 










Légende :    VFR   VFR Marginal   IFR   IFR Intensif   IFR Très Intensif
Visi : 
Plafond : 
>= 8 km
>= 3000ft
5 à 8 km
1000 à 3000 ft
1500m à 5 km
500 à 1000 ft
800 à 1500m
200 à 500 ft
< 800m
< 200 ft
Symboles :   Orages  Brouillard  Fortes neiges  Fortes précipitations  Vent > 20 kt
SIGMETs :   Divers  Orages  Givrage  Turbulence  Onde Orograph.  Cendres Volcan.







- Altitude de l'aérodrome : 194 ft
- Code IATA : LME
- Voir les cartes d'approche


LFRM - Le Mans

DERNIER METAR :
  • 222130Z AUTO 10003KT 7000 SCT024 BKN047 OVC180 06/05 Q1008

METARs EXPIRÉS :
  • 222100Z AUTO 08003KT 9999 SCT023 BKN043 BKN050 06/05 Q1008 TEMPO 4000 RA FEW015CB BKN020
  • 222030Z AUTO 00000KT 9999 FEW014 SCT024 BKN029 06/05 Q1008 TEMPO 4000 RA FEW015CB BKN020
  • 222000Z AUTO VRB02KT 9999 BKN041 BKN048 OVC096 06/05 Q1008 TEMPO 4000 RA FEW015CB BKN020
  • 221930Z AUTO VRB02KT 9999 BKN042 BKN100 06/05 Q1008 TEMPO 4000 RA FEW015CB BKN020
  • 221900Z AUTO 10002KT 9999 -RA SCT040 BKN056 OVC110 06/05 Q1007 TEMPO 4000 RA FEW015CB BKN020

TAF TAF LFRM
Valide du 22 à 18h jusqu'au 23 à 03h UTC


221700Z 2218/2303 VRB03KT 9999 SCT030 BKN046
TEMPO 2218/2303 4000 RA FEW015CB BKN020
Pas de NOTAMs connus pour ce terrain.



MET'MAP, la Météo Aéronautique d'un coup d'oeil ! - Copyright ORBIFLY Décembre 2007 - Disclaimer

ORBIFLY MET'MAP TEAM :

Programmation & Développement : Alexandra Zaïnal
Conception & Développement : Baudouin d'Aumeries
Co-Programmation & Développement : Marc-Olivier Méhu
Soutien technique & logistique : Manuel Goepfert

Contact : metmap@orbifly.com




SOURCES & CREDITS :

   NOAA